Time;durP1;ratioP1;P1;durP2;ratioP2;P2;SDS_P1;SDS_P2;PMS_P1;PMS_P2;Temp;Humidity;BMP_temperature;BMP_pressure;BME280_temperature;BME280_humidity;BME280_pressure;Samples;Min_cycle;Max_cycle;Signal;HPM_P1;HPM_P2
2021/12/20 00:01:39;;;;;;;9.85;6.45;;;;;;;;;;6193941;23;20017;-46
2021/12/20 00:04:04;;;;;;;8.25;5.97;;;;;;;;;;6193207;23;20023;-46
2021/12/20 00:06:29;;;;;;;9.07;6.45;;;;;;;;;;6188786;23;20517;-42
2021/12/20 00:08:55;;;;;;;9.50;6.95;;;;;;;;;;6188569;23;20015;-45
2021/12/20 00:11:20;;;;;;;12.57;7.35;;;;;;;;;;6186175;23;20106;-42
2021/12/20 00:13:46;;;;;;;12.00;7.47;;;;;;;;;;6193046;23;20021;-45
2021/12/20 00:16:11;;;;;;;10.13;7.55;;;;;;;;;;6191545;23;20515;-44
2021/12/20 00:18:36;;;;;;;9.40;6.63;;;;;;;;;;6188554;23;20549;-45
2021/12/20 00:21:02;;;;;;;10.20;7.03;;;;;;;;;;6188789;23;20009;-46
2021/12/20 00:23:27;;;;;;;10.85;7.15;;;;;;;;;;6191926;23;20013;-42
2021/12/20 00:25:53;;;;;;;8.82;6.05;;;;;;;;;;6193538;23;20012;-42
2021/12/20 00:28:18;;;;;;;8.60;6.32;;;;;;;;;;6190736;23;20016;-45
2021/12/20 00:30:44;;;;;;;10.25;5.95;;;;;;;;;;6188113;23;20016;-45
2021/12/20 00:33:09;;;;;;;7.55;5.78;;;;;;;;;;6188295;23;20516;-44
2021/12/20 00:35:34;;;;;;;6.93;4.55;;;;;;;;;;6193612;23;20008;-42
2021/12/20 00:40:43;;;;;;;6.45;4.85;;;;;;;;;;6182470;23;20012;-46
2021/12/20 00:43:09;;;;;;;8.43;5.40;;;;;;;;;;6194207;23;20004;-42
2021/12/20 00:45:35;;;;;;;7.28;4.50;;;;;;;;;;6179672;23;20344;-43
2021/12/20 00:48:00;;;;;;;6.55;4.80;;;;;;;;;;6180661;23;20020;-42
2021/12/20 00:50:26;;;;;;;6.40;4.50;;;;;;;;;;6190488;23;20365;-42
2021/12/20 00:52:51;;;;;;;5.45;4.28;;;;;;;;;;6197789;23;20437;-43
2021/12/20 00:55:18;;;;;;;7.95;5.50;;;;;;;;;;6192566;23;20094;-42
2021/12/20 00:57:47;;;;;;;6.90;4.93;;;;;;;;;;6190401;23;20096;-42
2021/12/20 01:00:13;;;;;;;9.13;6.10;;;;;;;;;;6190461;23;20013;-43
2021/12/20 01:02:39;;;;;;;8.32;5.65;;;;;;;;;;6162109;23;20397;-42
2021/12/20 01:05:04;;;;;;;8.63;5.85;;;;;;;;;;6190406;23;20038;-42
2021/12/20 01:07:30;;;;;;;7.78;6.00;;;;;;;;;;6193523;23;20058;-43
2021/12/20 01:09:59;;;;;;;8.80;6.30;;;;;;;;;;6198168;23;20005;-42
2021/12/20 01:12:28;;;;;;;10.68;7.35;;;;;;;;;;6192539;23;20056;-43
2021/12/20 01:14:58;;;;;;;7.38;5.63;;;;;;;;;;6195480;23;20425;-44
2021/12/20 01:17:24;;;;;;;7.78;6.28;;;;;;;;;;6190057;23;20015;-43
2021/12/20 01:19:49;;;;;;;8.82;6.40;;;;;;;;;;6189630;23;20013;-42
2021/12/20 01:22:14;;;;;;;8.77;5.32;;;;;;;;;;6190993;23;20025;-42
2021/12/20 01:24:40;;;;;;;7.05;4.40;;;;;;;;;;6194730;23;20020;-43
2021/12/20 01:27:05;;;;;;;7.03;4.90;;;;;;;;;;6195293;23;20021;-45
2021/12/20 01:29:30;;;;;;;5.10;3.63;;;;;;;;;;6189886;23;20016;-43
2021/12/20 01:31:56;;;;;;;5.63;3.63;;;;;;;;;;6190519;23;20040;-42
2021/12/20 01:34:21;;;;;;;6.30;3.50;;;;;;;;;;6191310;23;20013;-43
2021/12/20 01:36:46;;;;;;;5.97;3.45;;;;;;;;;;6193612;23;20004;-45
2021/12/20 01:39:12;;;;;;;6.00;3.30;;;;;;;;;;6193367;23;20024;-42
2021/12/20 01:41:38;;;;;;;6.32;3.45;;;;;;;;;;6190198;23;20009;-43
2021/12/20 01:44:03;;;;;;;6.53;4.07;;;;;;;;;;6189652;23;20009;-44
2021/12/20 01:46:29;;;;;;;4.38;3.38;;;;;;;;;;6193682;23;20031;-42
2021/12/20 01:48:55;;;;;;;6.20;4.18;;;;;;;;;;6194607;23;20016;-46
2021/12/20 01:54:04;;;;;;;8.00;4.22;;;;;;;;;;6189633;23;20460;-42
2021/12/20 01:56:32;;;;;;;7.38;4.43;;;;;;;;;;6194015;23;20079;-44
2021/12/20 01:59:02;;;;;;;8.15;4.18;;;;;;;;;;6156088;23;20016;-42
2021/12/20 02:01:28;;;;;;;5.45;3.92;;;;;;;;;;6190856;23;20009;-44
2021/12/20 02:03:58;;;;;;;5.05;3.38;;;;;;;;;;6190136;23;20055;-43
2021/12/20 02:06:35;;;;;;;5.95;3.38;;;;;;;;;;6165112;23;20481;-44
2021/12/20 02:09:04;;;;;;;4.50;3.05;;;;;;;;;;6194621;23;20515;-42
2021/12/20 02:11:29;;;;;;;6.80;3.92;;;;;;;;;;6189772;23;20017;-44
2021/12/20 02:13:55;;;;;;;6.22;3.83;;;;;;;;;;6189560;23;20140;-43
2021/12/20 02:16:20;;;;;;;5.53;4.13;;;;;;;;;;6190003;23;20028;-42
2021/12/20 02:18:46;;;;;;;7.25;4.32;;;;;;;;;;6194923;23;20476;-43
2021/12/20 02:21:11;;;;;;;5.18;3.78;;;;;;;;;;6193026;23;20013;-43
2021/12/20 02:23:36;;;;;;;7.68;4.93;;;;;;;;;;6189894;23;20009;-43
2021/12/20 02:26:03;;;;;;;7.07;3.85;;;;;;;;;;6189482;23;20345;-45
2021/12/20 02:28:35;;;;;;;7.88;4.97;;;;;;;;;;6192811;23;20009;-43
2021/12/20 02:38:54;;;;;;;6.25;4.35;;;;;;;;;;6188363;23;20021;-42
2021/12/20 02:41:22;;;;;;;5.63;4.25;;;;;;;;;;6190443;23;20059;-42
2021/12/20 02:43:54;;;;;;;6.88;4.18;;;;;;;;;;6194739;23;20013;-42
2021/12/20 02:49:04;;;;;;;3.55;3.00;;;;;;;;;;6191864;23;20021;-42
2021/12/20 02:51:29;;;;;;;4.38;2.45;;;;;;;;;;6191914;23;20031;-43
2021/12/20 02:53:56;;;;;;;3.38;2.47;;;;;;;;;;6194805;23;20096;-42
2021/12/20 02:56:22;;;;;;;3.30;2.75;;;;;;;;;;6190243;23;20005;-43
2021/12/20 02:58:47;;;;;;;9.25;3.40;;;;;;;;;;6189263;23;20001;-43
2021/12/20 03:01:12;;;;;;;6.72;2.88;;;;;;;;;;6188720;23;20017;-42
2021/12/20 03:03:38;;;;;;;5.20;2.47;;;;;;;;;;6193949;23;20088;-43
2021/12/20 03:06:24;;;;;;;6.20;3.28;;;;;;;;;;6194222;23;20309;-45
2021/12/20 03:08:52;;;;;;;6.07;3.35;;;;;;;;;;6193731;23;20162;-42
2021/12/20 03:11:18;;;;;;;6.10;3.15;;;;;;;;;;6154583;23;20029;-43
2021/12/20 03:13:46;;;;;;;8.63;3.67;;;;;;;;;;6194171;23;20480;-42
2021/12/20 03:16:11;;;;;;;4.35;2.75;;;;;;;;;;6192564;23;20009;-42
2021/12/20 03:18:36;;;;;;;3.85;3.00;;;;;;;;;;6188987;23;20013;-42
2021/12/20 03:21:02;;;;;;;3.35;2.33;;;;;;;;;;6188630;23;20055;-43
2021/12/20 03:23:27;;;;;;;3.92;2.38;;;;;;;;;;6189868;23;20025;-42
2021/12/20 03:25:52;;;;;;;4.57;3.33;;;;;;;;;;6193660;23;20017;-42
2021/12/20 03:28:17;;;;;;;3.88;2.83;;;;;;;;;;6191427;23;20024;-42
2021/12/20 03:30:44;;;;;;;5.20;2.78;;;;;;;;;;6188612;23;20032;-43
2021/12/20 03:33:09;;;;;;;3.70;2.72;;;;;;;;;;6188779;23;20480;-43
2021/12/20 03:35:34;;;;;;;4.63;2.80;;;;;;;;;;6193591;23;20013;-42
2021/12/20 03:38:00;;;;;;;3.47;2.53;;;;;;;;;;6192808;23;20008;-43
2021/12/20 03:40:25;;;;;;;6.22;3.40;;;;;;;;;;6189244;23;20020;-42
2021/12/20 03:42:50;;;;;;;5.45;3.97;;;;;;;;;;6188947;23;20009;-42
2021/12/20 03:45:16;;;;;;;5.55;3.65;;;;;;;;;;6188859;23;20122;-42
2021/12/20 03:47:42;;;;;;;4.25;2.88;;;;;;;;;;6194515;23;20012;-42
2021/12/20 03:50:08;;;;;;;4.88;3.60;;;;;;;;;;6193192;23;20074;-42
2021/12/20 03:52:33;;;;;;;5.05;3.38;;;;;;;;;;6188487;23;20017;-42
2021/12/20 03:54:59;;;;;;;4.38;3.00;;;;;;;;;;6188359;23;20009;-43
2021/12/20 03:57:24;;;;;;;4.68;3.08;;;;;;;;;;6191691;23;20009;-42
2021/12/20 03:59:51;;;;;;;6.07;3.58;;;;;;;;;;6193607;23;20005;-42
2021/12/20 04:02:19;;;;;;;7.53;3.30;;;;;;;;;;6191783;23;20059;-42
2021/12/20 04:04:44;;;;;;;5.55;3.13;;;;;;;;;;6189100;23;20405;-43
2021/12/20 04:07:09;;;;;;;2.70;2.38;;;;;;;;;;6188260;23;20018;-44
2021/12/20 04:09:35;;;;;;;4.57;2.60;;;;;;;;;;6193626;23;20017;-42
2021/12/20 04:12:00;;;;;;;3.22;2.92;;;;;;;;;;6193314;23;20025;-43
2021/12/20 04:14:25;;;;;;;4.93;3.22;;;;;;;;;;6189748;23;20135;-46
2021/12/20 04:16:50;;;;;;;2.60;2.40;;;;;;;;;;6188370;23;20040;-45
2021/12/20 04:19:16;;;;;;;6.07;2.58;;;;;;;;;;6189756;23;20112;-42
2021/12/20 04:21:41;;;;;;;5.30;3.50;;;;;;;;;;6193331;23;20009;-42
2021/12/20 04:24:06;;;;;;;3.30;2.78;;;;;;;;;;6196148;23;20036;-44
2021/12/20 04:26:32;;;;;;;4.35;3.40;;;;;;;;;;6189927;23;20037;-43
2021/12/20 04:28:57;;;;;;;5.25;3.33;;;;;;;;;;6190752;23;20013;-42
2021/12/20 04:31:23;;;;;;;20.38;4.05;;;;;;;;;;6192464;23;20028;-42
2021/12/20 04:33:48;;;;;;;4.07;3.10;;;;;;;;;;6195665;23;20034;-44
2021/12/20 04:36:13;;;;;;;3.20;2.90;;;;;;;;;;6194172;23;20009;-45
2021/12/20 04:38:39;;;;;;;7.22;3.78;;;;;;;;;;6189831;23;20012;-42
2021/12/20 04:41:04;;;;;;;3.83;3.08;;;;;;;;;;6190792;23;20005;-44
2021/12/20 04:43:30;;;;;;;4.63;2.72;;;;;;;;;;6194226;23;20441;-47
2021/12/20 04:45:55;;;;;;;3.30;2.88;;;;;;;;;;6193875;23;20023;-43
2021/12/20 04:48:20;;;;;;;5.88;2.53;;;;;;;;;;6192254;23;20017;-43
2021/12/20 04:50:46;;;;;;;3.72;2.72;;;;;;;;;;6189995;23;20099;-43
2021/12/20 04:53:11;;;;;;;3.55;2.55;;;;;;;;;;6188342;23;20020;-42
2021/12/20 04:55:36;;;;;;;3.40;2.42;;;;;;;;;;6195020;23;20004;-42
2021/12/20 04:58:03;;;;;;;3.70;2.20;;;;;;;;;;6195863;23;20015;-42
2021/12/20 05:00:30;;;;;;;2.42;1.77;;;;;;;;;;6190260;23;20021;-43
2021/12/20 05:02:56;;;;;;;3.33;2.08;;;;;;;;;;6190548;23;20172;-42
2021/12/20 05:05:21;;;;;;;3.05;1.85;;;;;;;;;;6191762;23;20978;-43
2021/12/20 05:07:47;;;;;;;2.47;1.90;;;;;;;;;;6195498;23;20453;-44
2021/12/20 05:10:24;;;;;;;2.35;1.88;;;;;;;;;;6193882;23;20509;-42
2021/12/20 05:12:50;;;;;;;2.55;2.03;;;;;;;;;;6190651;23;20028;-42
2021/12/20 05:15:15;;;;;;;1.85;1.42;;;;;;;;;;6190221;23;20009;-42
2021/12/20 05:17:40;;;;;;;2.70;1.80;;;;;;;;;;6195659;23;20092;-42
2021/12/20 05:20:05;;;;;;;2.05;1.15;;;;;;;;;;6194762;23;20048;-42
2021/12/20 05:22:31;;;;;;;4.90;1.63;;;;;;;;;;6190504;23;20024;-41
2021/12/20 05:24:56;;;;;;;1.80;1.00;;;;;;;;;;6190023;23;20079;-42
2021/12/20 05:27:22;;;;;;;1.67;1.17;;;;;;;;;;6192031;23;20036;-42
2021/12/20 05:29:49;;;;;;;2.80;1.30;;;;;;;;;;6194845;23;20039;-44
2021/12/20 05:32:14;;;;;;;2.33;1.45;;;;;;;;;;6192945;23;20074;-43
2021/12/20 05:34:40;;;;;;;1.10;1.00;;;;;;;;;;6189394;23;20040;-42
2021/12/20 05:37:05;;;;;;;3.30;1.45;;;;;;;;;;6189208;23;20053;-44
2021/12/20 05:39:31;;;;;;;3.63;1.58;;;;;;;;;;6193938;23;20579;-42
2021/12/20 05:41:56;;;;;;;3.00;1.65;;;;;;;;;;6194161;23;20005;-42
2021/12/20 05:44:21;;;;;;;3.35;1.75;;;;;;;;;;6192052;23;20016;-44
2021/12/20 05:46:46;;;;;;;2.17;1.80;;;;;;;;;;6189609;23;20004;-43
2021/12/20 05:49:12;;;;;;;2.13;1.83;;;;;;;;;;6189779;23;20013;-42
2021/12/20 05:51:38;;;;;;;5.15;2.20;;;;;;;;;;6194008;23;20035;-46
2021/12/20 05:54:03;;;;;;;3.42;1.92;;;;;;;;;;6195434;23;20013;-42
2021/12/20 05:56:28;;;;;;;4.72;2.08;;;;;;;;;;6189917;23;20016;-43
2021/12/20 05:58:53;;;;;;;2.78;1.80;;;;;;;;;;6190055;23;20013;-42
2021/12/20 06:01:19;;;;;;;3.83;1.95;;;;;;;;;;6190897;23;20438;-44
2021/12/20 06:03:44;;;;;;;3.10;2.00;;;;;;;;;;6194954;23;20008;-42
2021/12/20 06:06:09;;;;;;;3.95;2.03;;;;;;;;;;6193952;23;20028;-47
2021/12/20 06:08:35;;;;;;;3.13;2.83;;;;;;;;;;6189403;23;20646;-43
2021/12/20 06:11:00;;;;;;;4.60;2.80;;;;;;;;;;6189796;23;20005;-43
2021/12/20 06:13:25;;;;;;;3.70;2.30;;;;;;;;;;6192074;23;20017;-42
2021/12/20 06:15:51;;;;;;;4.55;2.25;;;;;;;;;;6195010;23;20505;-42
2021/12/20 06:18:16;;;;;;;3.60;2.72;;;;;;;;;;6192215;23;20016;-43
2021/12/20 06:20:44;;;;;;;2.88;2.17;;;;;;;;;;6189817;23;20006;-44
2021/12/20 06:23:09;;;;;;;7.20;2.90;;;;;;;;;;6189012;23;20068;-43
2021/12/20 06:25:35;;;;;;;6.55;2.65;;;;;;;;;;6195110;23;20016;-42
2021/12/20 06:28:00;;;;;;;6.18;2.83;;;;;;;;;;6194332;23;20013;-42
2021/12/20 06:30:25;;;;;;;2.92;2.55;;;;;;;;;;6190260;23;20368;-44
2021/12/20 06:32:50;;;;;;;3.13;1.90;;;;;;;;;;6189242;23;20017;-42
2021/12/20 06:35:16;;;;;;;3.17;2.33;;;;;;;;;;6189522;23;20020;-43
2021/12/20 06:37:47;;;;;;;5.03;2.40;;;;;;;;;;6195195;23;20043;-42
2021/12/20 06:40:12;;;;;;;3.35;2.30;;;;;;;;;;6192595;23;20012;-44
2021/12/20 06:42:38;;;;;;;2.80;1.77;;;;;;;;;;6189786;23;20009;-45
2021/12/20 06:45:07;;;;;;;4.75;2.80;;;;;;;;;;6188246;23;20064;-44
2021/12/20 06:47:33;;;;;;;3.33;2.38;;;;;;;;;;6193603;23;20028;-44
2021/12/20 06:49:58;;;;;;;3.42;1.83;;;;;;;;;;6193785;23;20028;-42
2021/12/20 06:52:24;;;;;;;2.92;2.33;;;;;;;;;;6190740;23;20030;-43
2021/12/20 06:54:51;;;;;;;6.15;2.38;;;;;;;;;;6188581;23;20009;-42
2021/12/20 06:57:16;;;;;;;4.78;3.20;;;;;;;;;;6190077;23;20025;-42
2021/12/20 06:59:41;;;;;;;3.55;2.22;;;;;;;;;;6193588;23;20008;-43
2021/12/20 07:02:07;;;;;;;2.72;1.98;;;;;;;;;;6193181;23;20013;-42
2021/12/20 07:04:32;;;;;;;4.20;2.20;;;;;;;;;;6188886;23;20079;-43
2021/12/20 07:06:57;;;;;;;4.65;1.85;;;;;;;;;;6187925;23;20009;-42
2021/12/20 07:09:23;;;;;;;2.42;2.08;;;;;;;;;;6191034;23;20029;-43
2021/12/20 07:11:48;;;;;;;5.78;2.60;;;;;;;;;;6192933;23;20017;-43
2021/12/20 07:14:13;;;;;;;4.53;2.47;;;;;;;;;;6192508;23;20310;-46
2021/12/20 07:16:40;;;;;;;4.00;2.47;;;;;;;;;;6187551;23;20013;-42
2021/12/20 07:19:06;;;;;;;2.85;2.20;;;;;;;;;;6188880;23;20012;-43
2021/12/20 07:21:31;;;;;;;2.95;2.25;;;;;;;;;;6192310;23;20013;-43
2021/12/20 07:23:56;;;;;;;5.45;3.20;;;;;;;;;;6193434;23;20013;-43
2021/12/20 07:26:22;;;;;;;4.85;2.97;;;;;;;;;;6188424;23;20024;-43
2021/12/20 07:28:47;;;;;;;2.92;2.50;;;;;;;;;;6188688;23;20390;-43
2021/12/20 07:31:13;;;;;;;6.13;2.15;;;;;;;;;;6187505;23;20028;-45
2021/12/20 07:33:39;;;;;;;4.32;2.67;;;;;;;;;;6193514;23;20009;-42
2021/12/20 07:36:05;;;;;;;5.85;3.30;;;;;;;;;;6193454;23;20374;-42
2021/12/20 07:38:30;;;;;;;6.25;2.63;;;;;;;;;;6154382;23;20005;-43
2021/12/20 07:40:57;;;;;;;3.88;2.97;;;;;;;;;;6193185;23;20038;-44
2021/12/20 07:43:22;;;;;;;4.65;2.85;;;;;;;;;;6189974;23;20024;-42
2021/12/20 07:45:48;;;;;;;5.05;3.10;;;;;;;;;;6188495;23;20005;-42
2021/12/20 07:48:18;;;;;;;5.63;2.63;;;;;;;;;;6188461;23;20028;-43
2021/12/20 07:50:43;;;;;;;;;;;;;;;;;;6194593;23;20031;-42
2021/12/20 07:53:08;;;;;;;3.17;2.30;;;;;;;;;;6235753;22;19915;-43
2021/12/20 07:55:34;;;;;;;2.42;2.22;;;;;;;;;;6234306;22;20070;-42
2021/12/20 07:57:59;;;;;;;2.85;2.03;;;;;;;;;;6232622;22;20004;-42
2021/12/20 08:00:25;;;;;;;3.17;2.10;;;;;;;;;;6234694;22;20016;-44
2021/12/20 08:02:51;;;;;;;2.65;2.13;;;;;;;;;;6236165;22;20368;-43
2021/12/20 08:05:19;;;;;;;2.22;1.98;;;;;;;;;;6233090;22;20630;-42
2021/12/20 08:07:45;;;;;;;3.67;2.65;;;;;;;;;;6233511;23;20344;-45
2021/12/20 08:10:11;;;;;;;4.70;2.40;;;;;;;;;;6235868;22;20076;-42
2021/12/20 08:12:36;;;;;;;3.60;2.40;;;;;;;;;;6236494;22;20051;-42
2021/12/20 08:15:01;;;;;;;2.85;2.25;;;;;;;;;;6237025;22;20467;-44
2021/12/20 08:17:28;;;;;;;4.63;2.28;;;;;;;;;;6236046;22;20016;-43
2021/12/20 08:19:53;;;;;;;3.00;2.33;;;;;;;;;;6237366;22;20007;-42
2021/12/20 08:22:23;;;;;;;3.22;2.13;;;;;;;;;;6235132;22;20348;-43
2021/12/20 08:24:49;;;;;;;5.15;2.22;;;;;;;;;;6235628;23;20004;-42
2021/12/20 08:27:14;;;;;;;3.05;2.28;;;;;;;;;;6235349;22;20015;-43
2021/12/20 08:29:39;;;;;;;3.42;2.47;;;;;;;;;;6237518;22;20015;-42
2021/12/20 08:32:05;;;;;;;3.50;2.50;;;;;;;;;;6235960;22;20016;-46
2021/12/20 08:34:31;;;;;;;4.18;2.22;;;;;;;;;;6235708;22;20020;-42
2021/12/20 08:36:56;;;;;;;4.15;3.30;;;;;;;;;;6235878;22;20099;-43
2021/12/20 08:39:21;;;;;;;5.78;2.97;;;;;;;;;;6235977;22;20034;-43
2021/12/20 08:41:47;;;;;;;3.20;2.13;;;;;;;;;;6234556;23;20009;-43
2021/12/20 08:44:12;;;;;;;3.90;2.95;;;;;;;;;;6236134;22;20083;-42
2021/12/20 08:46:38;;;;;;;4.93;2.63;;;;;;;;;;6235940;22;20015;-42
2021/12/20 08:49:03;;;;;;;4.65;3.42;;;;;;;;;;6236722;22;20083;-42
2021/12/20 08:51:28;;;;;;;3.42;2.80;;;;;;;;;;6234482;22;20024;-42
2021/12/20 08:53:54;;;;;;;5.22;2.72;;;;;;;;;;6236999;22;20009;-42
2021/12/20 08:56:19;;;;;;;4.57;3.47;;;;;;;;;;6231719;22;20099;-43
2021/12/20 08:58:45;;;;;;;6.85;3.85;;;;;;;;;;6235521;22;20008;-42
2021/12/20 09:01:10;;;;;;;4.60;2.97;;;;;;;;;;6233563;22;20016;-42
2021/12/20 09:03:35;;;;;;;4.25;2.95;;;;;;;;;;6231279;22;20011;-46
2021/12/20 09:06:00;;;;;;;3.63;2.83;;;;;;;;;;6233193;22;20019;-42
2021/12/20 09:08:26;;;;;;;4.25;3.13;;;;;;;;;;6232403;22;20087;-42
2021/12/20 09:10:51;;;;;;;3.22;2.30;;;;;;;;;;6234511;22;20340;-42
2021/12/20 09:13:16;;;;;;;4.82;2.90;;;;;;;;;;6233555;22;20850;-44
2021/12/20 09:15:42;;;;;;;6.82;3.38;;;;;;;;;;6232866;22;20008;-47
2021/12/20 09:18:08;;;;;;;5.30;3.20;;;;;;;;;;6233722;22;20019;-42
2021/12/20 09:20:34;;;;;;;5.82;3.15;;;;;;;;;;6232264;22;20000;-45
2021/12/20 09:23:07;;;;;;;6.78;3.35;;;;;;;;;;6228809;22;20012;-42
2021/12/20 09:25:33;;;;;;;5.53;4.35;;;;;;;;;;6231548;22;20020;-42
2021/12/20 09:28:00;;;;;;;5.13;3.25;;;;;;;;;;6230558;22;20440;-43
2021/12/20 09:30:27;;;;;;;9.98;3.67;;;;;;;;;;6230040;22;20470;-43
2021/12/20 09:32:52;;;;;;;8.07;3.92;;;;;;;;;;6231260;22;20012;-43
2021/12/20 09:35:17;;;;;;;5.97;3.13;;;;;;;;;;6230464;22;20448;-43
2021/12/20 09:37:45;;;;;;;6.63;3.85;;;;;;;;;;6231502;22;20445;-42
2021/12/20 09:40:14;;;;;;;4.75;3.17;;;;;;;;;;6230599;22;20091;-44
2021/12/20 09:42:51;;;;;;;5.13;3.75;;;;;;;;;;6227009;23;20344;-41
2021/12/20 09:45:17;;;;;;;5.43;3.42;;;;;;;;;;6229194;22;20012;-43
2021/12/20 09:47:43;;;;;;;5.65;3.13;;;;;;;;;;6230980;22;20012;-45
2021/12/20 09:50:08;;;;;;;8.15;3.50;;;;;;;;;;6229104;22;20032;-43
2021/12/20 09:52:33;;;;;;;4.85;2.90;;;;;;;;;;6230020;22;20016;-43
2021/12/20 09:54:59;;;;;;;4.22;3.25;;;;;;;;;;6230258;22;20333;-42
2021/12/20 09:57:24;;;;;;;5.78;3.25;;;;;;;;;;6230054;22;20732;-42
2021/12/20 09:59:50;;;;;;;4.10;2.85;;;;;;;;;;6231192;22;20008;-42
2021/12/20 10:02:16;;;;;;;4.13;3.13;;;;;;;;;;6229442;22;20016;-48
2021/12/20 10:04:41;;;;;;;4.75;2.60;;;;;;;;;;6231789;22;20004;-42
2021/12/20 10:07:08;;;;;;;6.13;2.92;;;;;;;;;;6230036;22;20448;-42
2021/12/20 10:09:35;;;;;;;4.68;3.10;;;;;;;;;;6229925;22;20490;-43
2021/12/20 10:12:14;;;;;;;5.05;2.70;;;;;;;;;;6230685;22;20061;-42
2021/12/20 10:15:03;;;;;;;4.82;2.83;;;;;;;;;;6230715;22;20090;-45
2021/12/20 10:17:30;;;;;;;4.60;2.78;;;;;;;;;;6230127;22;20012;-44
2021/12/20 10:20:10;;;;;;;3.83;2.20;;;;;;;;;;6232046;22;20008;-42
2021/12/20 10:22:36;;;;;;;3.28;2.20;;;;;;;;;;6231203;22;20008;-45
2021/12/20 10:25:02;;;;;;;1.90;1.27;;;;;;;;;;6230317;22;20464;-43
2021/12/20 10:27:28;;;;;;;1.70;1.42;;;;;;;;;;6231028;22;20686;-42
2021/12/20 10:29:54;;;;;;;2.17;1.75;;;;;;;;;;6230751;22;20413;-45
2021/12/20 10:32:38;;;;;;;2.45;1.52;;;;;;;;;;6230833;22;20098;-46
2021/12/20 10:35:23;;;;;;;2.00;1.63;;;;;;;;;;6230056;22;20016;-42
2021/12/20 10:37:49;;;;;;;1.95;1.70;;;;;;;;;;6230269;22;20011;-43
2021/12/20 10:40:14;;;;;;;2.65;1.52;;;;;;;;;;6230513;22;20020;-46
2021/12/20 10:42:40;;;;;;;3.90;2.03;;;;;;;;;;6230845;22;20175;-42
2021/12/20 10:45:07;;;;;;;2.35;1.88;;;;;;;;;;6230561;22;20107;-45
2021/12/20 10:47:32;;;;;;;2.72;1.83;;;;;;;;;;6230790;22;20095;-43
2021/12/20 10:49:57;;;;;;;2.78;1.80;;;;;;;;;;6229645;22;20032;-43
2021/12/20 10:52:27;;;;;;;2.17;1.55;;;;;;;;;;6230060;22;20020;-43
2021/12/20 10:54:52;;;;;;;2.65;1.92;;;;;;;;;;6230372;22;20032;-43
2021/12/20 10:57:28;;;;;;;2.63;1.98;;;;;;;;;;6230441;22;20026;-43
2021/12/20 11:00:12;;;;;;;3.58;1.95;;;;;;;;;;6230586;22;20043;-43
2021/12/20 11:03:20;;;;;;;2.78;2.13;;;;;;;;;;6230037;22;20036;-42
2021/12/20 11:06:03;;;;;;;3.45;2.55;;;;;;;;;;6229457;22;20008;-43
2021/12/20 11:11:13;;;;;;;4.28;2.15;;;;;;;;;;6229132;22;20075;-43
2021/12/20 11:13:40;;;;;;;3.10;2.45;;;;;;;;;;6230018;22;20530;-43
2021/12/20 11:16:26;;;;;;;3.40;2.28;;;;;;;;;;6228426;22;20008;-42
2021/12/20 11:19:18;;;;;;;5.20;2.15;;;;;;;;;;6227953;22;20011;-43
2021/12/20 11:21:46;;;;;;;4.65;2.13;;;;;;;;;;6222351;22;20012;-42
2021/12/20 11:24:12;;;;;;;2.85;2.25;;;;;;;;;;6227985;22;20104;-42
2021/12/20 11:26:38;;;;;;;2.03;1.83;;;;;;;;;;6231878;22;20476;-42
2021/12/20 11:29:03;;;;;;;3.65;2.50;;;;;;;;;;6230188;22;20054;-42
2021/12/20 11:31:28;;;;;;;4.10;2.63;;;;;;;;;;6230911;22;20016;-43
2021/12/20 11:33:54;;;;;;;3.28;2.30;;;;;;;;;;6229996;22;20020;-43
2021/12/20 11:36:19;;;;;;;2.63;2.08;;;;;;;;;;6230069;22;20117;-41
2021/12/20 11:38:45;;;;;;;3.65;2.55;;;;;;;;;;6230969;22;20015;-42
2021/12/20 11:41:11;;;;;;;6.90;2.20;;;;;;;;;;6229739;22;20012;-42
2021/12/20 11:43:37;;;;;;;2.75;2.22;;;;;;;;;;6230460;22;20079;-42
2021/12/20 11:46:04;;;;;;;2.92;2.40;;;;;;;;;;6230108;22;20613;-44
2021/12/20 11:48:30;;;;;;;3.30;2.45;;;;;;;;;;6229672;22;20008;-43
2021/12/20 11:50:56;;;;;;;3.38;2.47;;;;;;;;;;6228659;23;20078;-44
2021/12/20 11:53:21;;;;;;;2.60;2.22;;;;;;;;;;6227603;22;20413;-43
2021/12/20 11:55:48;;;;;;;2.55;1.92;;;;;;;;;;6230019;22;20040;-43
2021/12/20 11:58:21;;;;;;;3.38;2.00;;;;;;;;;;6228197;22;20032;-43
2021/12/20 12:00:53;;;;;;;1.65;1.55;;;;;;;;;;6231462;22;20313;-42
2021/12/20 12:03:19;;;;;;;1.38;1.13;;;;;;;;;;6229134;22;20022;-44
2021/12/20 12:05:52;;;;;;;3.15;1.05;;;;;;;;;;6229851;22;20008;-42
2021/12/20 12:08:23;;;;;;;1.40;1.08;;;;;;;;;;6228843;22;20103;-43
2021/12/20 12:10:49;;;;;;;1.17;1.08;;;;;;;;;;6230246;22;20012;-44
2021/12/20 12:13:16;;;;;;;0.73;0.73;;;;;;;;;;6229354;22;20025;-44
2021/12/20 12:16:02;;;;;;;0.85;0.60;;;;;;;;;;6229067;22;20071;-42
2021/12/20 12:18:48;;;;;;;1.80;0.80;;;;;;;;;;6229644;22;20043;-42
2021/12/20 12:21:40;;;;;;;0.68;0.65;;;;;;;;;;6229569;22;20395;-43
2021/12/20 12:24:06;;;;;;;1.42;0.70;;;;;;;;;;6230205;22;20380;-43
2021/12/20 12:26:32;;;;;;;1.05;0.95;;;;;;;;;;6229512;22;20012;-44
2021/12/20 12:28:57;;;;;;;1.00;0.90;;;;;;;;;;6229192;22;20004;-42
2021/12/20 12:31:23;;;;;;;1.15;1.05;;;;;;;;;;6229789;22;20028;-42
2021/12/20 12:34:04;;;;;;;1.23;1.13;;;;;;;;;;6228915;22;20020;-43
2021/12/20 12:36:32;;;;;;;4.93;1.30;;;;;;;;;;6228370;22;20317;-42
2021/12/20 12:38:59;;;;;;;1.17;1.08;;;;;;;;;;6229087;22;20011;-42
2021/12/20 12:41:26;;;;;;;1.80;1.25;;;;;;;;;;6225772;22;20135;-42
2021/12/20 12:44:00;;;;;;;1.30;1.20;;;;;;;;;;6227381;22;20008;-42
2021/12/20 12:46:42;;;;;;;1.73;1.63;;;;;;;;;;6227486;22;20099;-42
2021/12/20 12:49:19;;;;;;;3.15;1.30;;;;;;;;;;6229138;22;20013;-42
2021/12/20 12:51:45;;;;;;;1.98;1.50;;;;;;;;;;6228268;22;20094;-42
2021/12/20 12:54:30;;;;;;;1.30;1.00;;;;;;;;;;6229025;22;20907;-42
2021/12/20 12:57:15;;;;;;;1.38;1.10;;;;;;;;;;6228959;22;20008;-42
2021/12/20 12:59:41;;;;;;;2.60;1.30;;;;;;;;;;6228121;22;20095;-44
2021/12/20 13:02:15;;;;;;;1.60;1.50;;;;;;;;;;6229384;22;20068;-44
2021/12/20 13:04:47;;;;;;;4.07;1.80;;;;;;;;;;6229781;22;20058;-44
2021/12/20 13:07:16;;;;;;;1.95;1.77;;;;;;;;;;6228625;22;20039;-43
2021/12/20 13:09:46;;;;;;;2.38;2.10;;;;;;;;;;6228895;22;20031;-43
2021/12/20 13:12:16;;;;;;;4.80;2.22;;;;;;;;;;6227422;22;20024;-43
2021/12/20 13:15:03;;;;;;;2.22;1.95;;;;;;;;;;6230482;22;20050;-44
2021/12/20 13:17:29;;;;;;;1.77;1.60;;;;;;;;;;6229121;22;20079;-47
2021/12/20 13:20:25;;;;;;;3.47;1.60;;;;;;;;;;6231442;22;20016;-42
2021/12/20 13:22:56;;;;;;;1.55;1.45;;;;;;;;;;6231087;22;20008;-44
2021/12/20 13:25:40;;;;;;;3.42;2.35;;;;;;;;;;6229577;22;20091;-43
2021/12/20 13:28:08;;;;;;;2.47;2.20;;;;;;;;;;6231094;22;20019;-42
2021/12/20 13:30:38;;;;;;;2.55;2.35;;;;;;;;;;6232113;22;20001;-42
2021/12/20 13:33:03;;;;;;;2.70;2.50;;;;;;;;;;6232312;22;20048;-42
2021/12/20 13:35:29;;;;;;;7.88;2.97;;;;;;;;;;6230815;22;20012;-47
2021/12/20 13:38:12;;;;;;;10.98;2.80;;;;;;;;;;6232868;22;20852;-44
2021/12/20 13:40:54;;;;;;;3.47;2.47;;;;;;;;;;6232268;22;20011;-45
2021/12/20 13:46:23;;;;;;;3.60;3.20;;;;;;;;;;6216168;22;20012;-44
2021/12/20 13:48:49;;;;;;;3.10;2.55;;;;;;;;;;6230979;22;20035;-42
2021/12/20 13:51:15;;;;;;;2.88;2.53;;;;;;;;;;6230652;22;20066;-42
2021/12/20 13:53:40;;;;;;;3.28;2.60;;;;;;;;;;6231207;22;20395;-43
2021/12/20 13:56:06;;;;;;;2.78;2.58;;;;;;;;;;6230470;22;20456;-43
2021/12/20 13:58:31;;;;;;;3.22;2.92;;;;;;;;;;6231717;22;20012;-45
2021/12/20 14:00:57;;;;;;;3.20;2.90;;;;;;;;;;6230474;22;20004;-42
2021/12/20 14:03:23;;;;;;;4.70;3.38;;;;;;;;;;6231282;22;20091;-42
2021/12/20 14:05:48;;;;;;;3.80;3.33;;;;;;;;;;6231610;22;20032;-45
2021/12/20 14:08:24;;;;;;;4.90;3.20;;;;;;;;;;6229888;22;20337;-43
2021/12/20 14:10:50;;;;;;;4.03;3.40;;;;;;;;;;6231839;22;20016;-42
2021/12/20 14:13:16;;;;;;;4.07;3.20;;;;;;;;;;6231168;22;20016;-42
2021/12/20 14:15:44;;;;;;;4.13;3.33;;;;;;;;;;6231213;22;20050;-45
2021/12/20 14:18:13;;;;;;;5.10;3.67;;;;;;;;;;6230560;22;20016;-43
2021/12/20 14:20:39;;;;;;;;;;;;;;;;;;6232518;22;20028;-43
2021/12/20 14:23:06;;;;;;;4.03;3.53;;;;;;;;;;6230745;22;19929;-43
2021/12/20 14:25:34;;;;;;;5.00;3.35;;;;;;;;;;6231970;22;20283;-42
2021/12/20 14:28:01;;;;;;;4.15;3.35;;;;;;;;;;6231377;22;20560;-41
2021/12/20 14:30:26;;;;;;;3.33;2.88;;;;;;;;;;6230242;22;20340;-43
2021/12/20 14:32:51;;;;;;;3.72;3.38;;;;;;;;;;6232096;22;20016;-42
2021/12/20 14:35:22;;;;;;;3.60;3.30;;;;;;;;;;6229758;22;20139;-42
2021/12/20 14:37:48;;;;;;;3.30;3.00;;;;;;;;;;6231370;22;20016;-44
2021/12/20 14:40:32;;;;;;;3.22;2.92;;;;;;;;;;6229656;22;20012;-44
2021/12/20 14:43:01;;;;;;;3.38;3.05;;;;;;;;;;6231201;22;20085;-43
2021/12/20 14:45:27;;;;;;;4.10;3.13;;;;;;;;;;6231270;22;20039;-41
2021/12/20 14:48:12;;;;;;;3.30;3.00;;;;;;;;;;6229809;22;20066;-42
2021/12/20 14:50:43;;;;;;;3.20;2.90;;;;;;;;;;6229966;22;20050;-41
2021/12/20 14:53:15;;;;;;;3.53;2.80;;;;;;;;;;6230397;22;20495;-42
2021/12/20 14:55:41;;;;;;;3.30;3.00;;;;;;;;;;6231146;22;20038;-41
2021/12/20 14:58:06;;;;;;;2.15;1.95;;;;;;;;;;6229885;22;20016;-43
2021/12/20 15:00:31;;;;;;;4.65;2.20;;;;;;;;;;6229395;22;20096;-42
2021/12/20 15:02:56;;;;;;;2.08;1.80;;;;;;;;;;6231233;22;20021;-42
2021/12/20 15:05:23;;;;;;;3.13;2.30;;;;;;;;;;6229371;22;20032;-42
2021/12/20 15:07:48;;;;;;;2.30;1.90;;;;;;;;;;6231102;22;20377;-41